»·PEaware :: N6238A KSNA-KCRQ

N6238A :: KSNA-KCRQ

FLIGHT INFORMATION

Flight Status: Arrived
Operator: Privately registered:
United States
More flights under this callsign
Pilot: Nicholas J. (33481)
Aircraft: CESSNA 172 SKYHAWK
(C172)
More flights by this aircraft type
Origin: KSNA John Wayne-Orange Co
United States
Destination: KCRQ McClellan-Palomar
United States
More flights between these airports :: More routes between these airports
Route: V23 OCN
File this flight plan on PilotEdge
Remarks:
Altitude:
(Current/Filed)
5,000ft
Speed:
(Current/Filed)
105kts
Departed: 02-Sep-21 07:12 PM
Arrived: 02-Sep-21 08:05 PM
Distance/Time
Traveled:
44nm/0:53
Distance/Time
To Go:
Arrived

Flight Plot

Page will automatically refresh every two minutes.


Map Options




Map Legend


Flown Route
Filed Route
Departure Airport
Arrival Airport
Navaid (VOR, NDB)
Fix

Horizontal Profiles

Position Reports

Time Latitude Longitude Heading Altitude Ground
Speed
02-Sep-21 19:05 33.681039 -117.861231 159 46ft 0kts
02-Sep-21 19:06 33.681039 -117.861231 159 46ft 0kts
02-Sep-21 19:07 33.681039 -117.861231 159 46ft 0kts
02-Sep-21 19:08 33.681039 -117.861231 159 46ft 0kts
02-Sep-21 19:09 33.679867 -117.863261 268 44ft 8kts
02-Sep-21 19:11 33.680021 -117.863713 281 45ft 5kts
02-Sep-21 19:12 33.667499 -117.868798 187 416ft 77kts
02-Sep-21 19:13 33.645701 -117.871806 187 1338ft 79kts
02-Sep-21 19:14 33.630050 -117.862205 125 2068ft 77kts
02-Sep-21 19:18 33.681039 -117.861231 159 46ft 0kts
02-Sep-21 19:19 33.681039 -117.861231 159 46ft 0kts
02-Sep-21 19:20 33.681039 -117.861231 159 46ft 0kts
02-Sep-21 19:21 33.681039 -117.861231 159 46ft 0kts
02-Sep-21 19:22 33.680613 -117.862974 291 43ft 4kts
02-Sep-21 19:23 33.678770 -117.865061 206 48ft 54kts
02-Sep-21 19:24 33.658013 -117.870034 187 840ft 78kts
02-Sep-21 19:25 33.636020 -117.872667 187 1733ft 80kts
02-Sep-21 19:26 33.613636 -117.875305 187 2597ft 81kts
02-Sep-21 19:27 33.590905 -117.877336 162 3396ft 83kts
02-Sep-21 19:28 33.580126 -117.852542 112 4138ft 86kts
02-Sep-21 19:29 33.571371 -117.825783 112 4882ft 86kts
02-Sep-21 19:30 33.560983 -117.794071 112 5086ft 109kts
02-Sep-21 19:31 33.543235 -117.767636 156 5104ft 110kts
02-Sep-21 19:31 33.523095 -117.747769 134 5098ft 115kts
02-Sep-21 19:33 33.496418 -117.716454 136 5100ft 114kts
02-Sep-21 19:34 33.473759 -117.689885 136 5100ft 114kts
02-Sep-21 19:35 33.451101 -117.663347 136 5100ft 114kts
02-Sep-21 19:36 33.428289 -117.636634 136 5097ft 114kts
02-Sep-21 19:37 33.405605 -117.610098 136 5097ft 114kts
02-Sep-21 19:38 33.382799 -117.583549 133 5094ft 112kts
02-Sep-21 19:38 33.364208 -117.561701 134 5098ft 114kts
02-Sep-21 19:39 33.340895 -117.534500 134 5026ft 117kts
02-Sep-21 19:41 33.314337 -117.503107 134 5023ft 114kts
02-Sep-21 19:41 33.294857 -117.481433 135 5023ft 115kts
02-Sep-21 19:42 33.271257 -117.455445 135 5024ft 115kts
02-Sep-21 19:43 33.247623 -117.429416 135 5024ft 115kts
02-Sep-21 19:45 33.240629 -117.387922 93 5025ft 111kts
02-Sep-21 19:46 33.237753 -117.350859 92 5024ft 112kts
02-Sep-21 19:46 33.235373 -117.320006 92 5026ft 112kts
02-Sep-21 19:47 33.232520 -117.282725 92 5031ft 113kts
02-Sep-21 19:48 33.229678 -117.245312 92 5019ft 113kts
02-Sep-21 19:49 33.226826 -117.207829 92 5010ft 112kts
02-Sep-21 19:50 33.224207 -117.170912 93 5009ft 112kts
02-Sep-21 19:51 33.222303 -117.133327 92 5013ft 114kts
02-Sep-21 19:52 33.219635 -117.095350 92 5006ft 113kts
02-Sep-21 19:53 33.216867 -117.056572 93 4825ft 124kts
02-Sep-21 19:54 33.210980 -117.021920 155 4291ft 109kts
02-Sep-21 19:55 33.182157 -117.020790 224 3794ft 109kts
02-Sep-21 19:56 33.165076 -117.046821 250 3712ft 81kts
02-Sep-21 19:57 33.158441 -117.076890 257 3673ft 95kts
02-Sep-21 19:58 33.155734 -117.110018 263 3195ft 95kts
02-Sep-21 19:59 33.150680 -117.141344 259 2661ft 103kts
02-Sep-21 20:00 33.145180 -117.175901 259 2055ft 107kts
02-Sep-21 20:01 33.140035 -117.207600 259 1493ft 91kts
02-Sep-21 20:02 33.135340 -117.236553 260 997ft 79kts
02-Sep-21 20:03 33.131484 -117.260180 257 593ft 73kts
02-Sep-21 20:04 33.128098 -117.279235 230 332ft 28kts
02-Sep-21 20:05 33.127034 -117.279989 131 331ft 8kts

Navigation Log

Ident Type
Flight plan parsing failed, navigation log unavailable